Time;durP1;ratioP1;P1;durP2;ratioP2;P2;SDS_P1;SDS_P2;PMS_P1;PMS_P2;Temp;Humidity;BMP_temperature;BMP_pressure;BME280_temperature;BME280_humidity;BME280_pressure;Samples;Min_cycle;Max_cycle;Signal;HPM_P1;HPM_P2
2022/01/15 00:00:09;;;;;;;;;;;;;;;0.91;73.89;99653.94;5014157;28;860;-57
2022/01/15 00:02:35;;;;;;;;;;;;;;;0.35;75.67;99648.25;5014080;28;1894;-57
2022/01/15 00:05:02;;;;;;;;;;;;;;;0.19;77.89;99651.63;5013989;28;840;-57
2022/01/15 00:07:28;;;;;;;;;;;;;;;0.13;79.96;99652.97;5013917;28;952;-57
2022/01/15 00:09:55;;;;;;;;;;;;;;;0.54;78.50;99662.09;5013797;28;817;-57
2022/01/15 00:12:22;;;;;;;;;;;;;;;1.36;76.04;99663.84;5013888;28;987;-57
2022/01/15 00:14:50;;;;;;;;;;;;;;;1.89;76.11;99663.03;5013813;28;896;-57
2022/01/15 00:17:32;;;;;;;;;;;;;;;1.94;76.49;99670.94;5013676;28;991;-57
2022/01/15 00:20:05;;;;;;;;;;;;;;;2.20;77.39;99684.13;5013675;28;928;-57
2022/01/15 00:22:32;;;;;;;;;;;;;;;2.25;75.99;99711.13;5013503;28;1893;-57
2022/01/15 00:25:03;;;;;;;;;;;;;;;2.49;75.22;99714.88;5013597;28;925;-57
2022/01/15 00:27:29;;;;;;;;;;;;;;;3.37;68.11;99726.38;5013708;28;975;-57
2022/01/15 00:29:56;;;;;;;;;;;;;;;3.80;66.57;99727.31;5013631;28;845;-57
2022/01/15 00:32:22;;;;;;;;;;;;;;;3.96;66.91;99742.88;5013583;28;853;-57
2022/01/15 00:34:48;;;;;;;;;;;;;;;4.27;65.32;99748.19;5013099;28;1135;-57
2022/01/15 00:37:14;;;;;;;;;;;;;;;4.64;64.86;99717.59;5013464;28;824;-57
2022/01/15 00:42:51;;;;;;;;;;;;;;;4.65;65.19;99727.41;5009488;28;1918;-56
2022/01/15 00:45:21;;;;;;;;;;;;;;;4.57;65.90;99728.41;5013611;28;844;-56
2022/01/15 00:47:48;;;;;;;;;;;;;;;4.49;66.22;99740.38;5013182;28;936;-57
2022/01/15 00:53:27;;;;;;;;;;;;;;;4.38;66.72;99703.84;5009121;28;1675;-55
2022/01/15 00:56:00;;;;;;;;;;;;;;;4.39;66.28;99702.66;5013410;28;856;-55
2022/01/15 00:58:28;;;;;;;;;;;;;;;4.35;66.84;99719.00;5013269;28;828;-57
2022/01/15 01:00:57;;;;;;;;;;;;;;;4.39;66.48;99717.13;5012985;28;884;-55
2022/01/15 01:03:28;;;;;;;;;;;;;;;4.39;66.30;99713.59;5013196;28;1960;-55
2022/01/15 01:05:54;;;;;;;;;;;;;;;4.37;66.40;99708.50;5012977;28;837;-55
2022/01/15 01:08:24;;;;;;;;;;;;;;;4.42;66.29;99701.94;4995312;28;1604;-55
2022/01/15 01:10:55;;;;;;;;;;;;;;;4.28;66.60;99695.03;5012714;28;887;-56
2022/01/15 01:24:49;;;;;;;;;;;;;;;4.31;66.26;99764.69;4914409;29;660;-56
2022/01/15 01:27:23;;;;;;;;;;;;;;;4.18;66.66;99780.47;4914290;29;1082;-57
2022/01/15 01:32:53;;;;;;;;;;;;;;;4.00;67.68;99776.56;4913921;29;676;-57
2022/01/15 01:48:16;;;;;;;;;;;;;;;3.84;68.66;99796.53;4895010;29;849;-57
2022/01/15 01:50:43;;;;;;;;;;;;;;;3.89;68.59;99793.53;4894645;29;1563;-57
2022/01/15 01:53:10;;;;;;;;;;;;;;;3.90;68.49;99794.31;4938964;28;919;-58
2022/01/15 01:55:37;;;;;;;;;;;;;;;3.95;68.21;99799.50;4992489;28;856;-57
2022/01/15 01:58:04;;;;;;;;;;;;;;;3.96;68.04;99800.31;4974891;28;904;-57
2022/01/15 02:00:31;;;;;;;;;;;;;;;3.87;68.79;99820.44;4974927;28;1289;-57
2022/01/15 02:02:58;;;;;;;;;;;;;;;4.00;68.43;99821.09;4991487;28;1910;-57
2022/01/15 02:05:28;;;;;;;;;;;;;;;3.95;69.22;99823.31;4974784;28;1620;-57
2022/01/15 02:07:58;;;;;;;;;;;;;;;3.85;69.07;99833.66;4992075;28;996;-57
2022/01/15 02:10:25;;;;;;;;;;;;;;;3.85;69.45;99841.88;4992222;28;939;-57
2022/01/15 02:12:55;;;;;;;;;;;;;;;3.78;69.80;99847.19;4991973;28;825;-57
2022/01/15 02:15:23;;;;;;;;;;;;;;;3.79;70.21;99854.22;4992364;28;920;-57
2022/01/15 02:17:51;;;;;;;;;;;;;;;3.70;70.50;99850.91;4992290;28;872;-57
2022/01/15 02:25:42;;;;;;;;;;;;;;;3.74;68.88;99884.59;4977562;28;563;-57
2022/01/15 02:28:09;;;;;;;;;;;;;;;3.69;69.34;99876.63;4992107;28;805;-57
2022/01/15 02:30:40;;;;;;;;;;;;;;;3.70;68.97;99867.28;4992030;28;908;-57
2022/01/15 02:33:07;;;;;;;;;;;;;;;3.74;68.99;99886.53;4992047;28;912;-57
2022/01/15 02:35:41;;;;;;;;;;;;;;;3.71;68.59;99873.56;4992311;28;1270;-57
2022/01/15 02:38:09;;;;;;;;;;;;;;;3.66;69.26;99885.56;4992073;28;794;-57
2022/01/15 02:40:36;;;;;;;;;;;;;;;3.59;69.40;99877.19;4974313;28;1336;-58
2022/01/15 02:43:04;;;;;;;;;;;;;;;3.55;69.38;99885.28;4974266;28;1887;-57
2022/01/15 02:45:32;;;;;;;;;;;;;;;3.61;69.18;99889.34;4991921;28;861;-57
2022/01/15 02:48:03;;;;;;;;;;;;;;;3.55;69.66;99882.56;5009925;28;1248;-57
2022/01/15 02:50:30;;;;;;;;;;;;;;;3.46;70.06;99865.56;4994035;28;1003;-57
2022/01/15 02:53:01;;;;;;;;;;;;;;;3.60;69.24;99854.94;5011462;28;809;-57
2022/01/15 02:55:28;;;;;;;;;;;;;;;3.68;68.78;99867.66;5011621;28;1075;-57
2022/01/15 02:57:55;;;;;;;;;;;;;;;3.75;68.58;99866.22;5011279;28;1233;-57
2022/01/15 03:00:22;;;;;;;;;;;;;;;3.78;68.92;99869.06;5011407;28;860;-57
2022/01/15 03:02:49;;;;;;;;;;;;;;;3.60;69.50;99865.09;5011268;28;1914;-57
2022/01/15 03:05:16;;;;;;;;;;;;;;;3.54;70.41;99874.69;5011322;28;871;-57
2022/01/15 03:07:42;;;;;;;;;;;;;;;3.51;70.81;99881.66;5011159;28;967;-57
2022/01/15 03:10:09;;;;;;;;;;;;;;;3.42;70.24;99887.31;5011573;28;852;-57
2022/01/15 03:12:36;;;;;;;;;;;;;;;3.38;71.38;99902.81;5011299;28;864;-57
2022/01/15 03:15:05;;;;;;;;;;;;;;;3.37;71.60;99903.97;5014671;28;865;-57
2022/01/15 03:17:32;;;;;;;;;;;;;;;3.43;71.66;99916.22;5015020;28;912;-57
2022/01/15 03:20:00;;;;;;;;;;;;;;;3.53;70.69;99916.84;5014704;28;903;-57
2022/01/15 03:22:27;;;;;;;;;;;;;;;3.56;69.00;99908.72;5014762;28;1894;-57
2022/01/15 03:24:54;;;;;;;;;;;;;;;3.63;69.30;99906.19;5014739;28;872;-57
2022/01/15 03:27:27;;;;;;;;;;;;;;;3.78;68.64;99896.41;4997186;28;1166;-57
2022/01/15 03:29:54;;;;;;;;;;;;;;;3.85;67.88;99903.97;5015159;28;785;-57
2022/01/15 03:32:21;;;;;;;;;;;;;;;3.88;67.99;99905.97;5015184;28;797;-58
2022/01/15 03:34:48;;;;;;;;;;;;;;;3.75;68.47;99912.69;5014705;28;909;-57
2022/01/15 03:37:16;;;;;;;;;;;;;;;3.68;68.95;99907.84;4997129;28;877;-57
2022/01/15 03:39:45;;;;;;;;;;;;;;;3.64;69.33;99917.91;5015517;28;827;-57
2022/01/15 03:42:12;;;;;;;;;;;;;;;3.60;69.45;99934.22;5014411;28;1890;-57
2022/01/15 03:44:39;;;;;;;;;;;;;;;3.60;69.47;99925.22;5014390;28;892;-57
2022/01/15 03:47:05;;;;;;;;;;;;;;;3.68;68.51;99918.78;4996643;28;1439;-57
2022/01/15 03:49:32;;;;;;;;;;;;;;;3.74;68.77;99939.25;5014506;28;869;-57
2022/01/15 03:51:58;;;;;;;;;;;;;;;3.72;68.72;99954.44;5014459;28;877;-57
2022/01/15 03:54:29;;;;;;;;;;;;;;;3.72;68.56;99957.94;5014871;28;852;-57
2022/01/15 03:56:55;;;;;;;;;;;;;;;3.88;66.96;99990.75;5014170;28;851;-57
2022/01/15 03:59:21;;;;;;;;;;;;;;;3.91;67.65;99981.88;5014187;28;816;-57
2022/01/15 04:01:49;;;;;;;;;;;;;;;3.72;68.34;99996.22;5014001;28;1907;-57
2022/01/15 04:04:16;;;;;;;;;;;;;;;3.61;68.76;100008.81;5014101;28;872;-57
2022/01/15 04:06:43;;;;;;;;;;;;;;;3.52;68.58;100013.63;4996317;28;1620;-57
2022/01/15 04:09:10;;;;;;;;;;;;;;;3.50;68.67;100019.47;5013967;28;844;-57
2022/01/15 04:11:36;;;;;;;;;;;;;;;3.58;68.36;100025.91;5013988;28;869;-57
2022/01/15 04:14:03;;;;;;;;;;;;;;;3.59;68.21;100030.25;5013859;28;853;-57
2022/01/15 04:16:30;;;;;;;;;;;;;;;3.57;68.26;100036.06;5013778;28;948;-57
2022/01/15 04:18:57;;;;;;;;;;;;;;;3.63;67.72;100039.34;5014016;28;848;-57
2022/01/15 04:21:24;;;;;;;;;;;;;;;3.61;67.63;100031.47;5013724;28;1882;-58
2022/01/15 04:23:50;;;;;;;;;;;;;;;3.58;68.06;100034.91;5013731;28;802;-57
2022/01/15 04:26:22;;;;;;;;;;;;;;;3.57;67.71;100032.53;5013173;28;833;-58
2022/01/15 04:28:49;;;;;;;;;;;;;;;3.74;66.00;100026.75;4996799;28;963;-57
2022/01/15 04:31:17;;;;;;;;;;;;;;;3.97;64.82;100028.88;5013508;28;964;-57
2022/01/15 04:33:43;;;;;;;;;;;;;;;4.01;65.60;100025.09;5013463;28;931;-57
2022/01/15 04:36:10;;;;;;;;;;;;;;;4.00;65.89;100039.13;5013818;28;1018;-57
2022/01/15 04:38:38;;;;;;;;;;;;;;;3.96;64.98;100044.50;5013461;28;1005;-57
2022/01/15 04:41:05;;;;;;;;;;;;;;;4.02;65.48;100059.50;5013492;28;873;-57
2022/01/15 04:43:32;;;;;;;;;;;;;;;4.11;63.27;100053.06;5013514;28;1886;-58
2022/01/15 04:45:58;;;;;;;;;;;;;;;4.22;62.74;100037.69;4995547;28;1515;-58
2022/01/15 04:48:25;;;;;;;;;;;;;;;4.23;62.51;100028.34;5013276;28;825;-58
2022/01/15 04:50:52;;;;;;;;;;;;;;;4.22;62.80;100037.69;5013110;28;899;-57
2022/01/15 04:53:18;;;;;;;;;;;;;;;4.18;63.21;100047.75;5013295;28;796;-57
2022/01/15 04:55:44;;;;;;;;;;;;;;;4.14;64.18;100061.38;5013106;28;979;-57
2022/01/15 04:58:11;;;;;;;;;;;;;;;4.06;64.94;100060.38;5013067;28;805;-57
2022/01/15 05:00:38;;;;;;;;;;;;;;;4.02;65.37;100070.44;5013128;28;856;-57
2022/01/15 05:03:04;;;;;;;;;;;;;;;3.98;65.51;100066.03;5012943;28;1906;-57
2022/01/15 05:05:31;;;;;;;;;;;;;;;3.89;66.27;100071.66;5012817;28;928;-57
2022/01/15 05:07:58;;;;;;;;;;;;;;;3.82;67.14;100075.00;5012752;28;892;-57
2022/01/15 05:10:27;;;;;;;;;;;;;;;3.76;67.44;100087.34;5012900;28;845;-57
2022/01/15 05:12:57;;;;;;;;;;;;;;;3.70;68.27;100082.47;5012736;28;899;-57
2022/01/15 05:15:22;;;;;;;;;;;;;;;3.61;68.14;100080.69;5012667;28;924;-57
2022/01/15 05:17:49;;;;;;;;;;;;;;;3.55;68.56;100090.28;5012692;28;834;-57
2022/01/15 05:20:19;;;;;;;;;;;;;;;3.49;68.49;100094.41;5012728;28;900;-57
2022/01/15 05:22:46;;;;;;;;;;;;;;;3.48;68.35;100110.00;5012595;28;1988;-57
2022/01/15 05:25:13;;;;;;;;;;;;;;;3.43;68.41;100110.22;5012522;28;893;-57
2022/01/15 05:27:42;;;;;;;;;;;;;;;3.38;69.52;100106.97;5012526;28;896;-58
2022/01/15 05:30:09;;;;;;;;;;;;;;;3.40;68.42;100110.94;5012484;28;836;-57
2022/01/15 05:32:36;;;;;;;;;;;;;;;3.43;68.45;100106.72;5012390;28;1090;-57
2022/01/15 05:35:03;;;;;;;;;;;;;;;3.35;68.57;100108.47;5012511;28;911;-57
2022/01/15 05:37:30;;;;;;;;;;;;;;;3.34;68.55;100108.81;5011666;28;851;-57
2022/01/15 05:39:56;;;;;;;;;;;;;;;3.37;68.52;100114.38;5012577;28;871;-57
2022/01/15 05:42:23;;;;;;;;;;;;;;;3.41;69.21;100119.91;5012290;28;1895;-57
2022/01/15 05:44:50;;;;;;;;;;;;;;;3.39;68.43;100112.09;5012230;28;883;-57
2022/01/15 05:47:17;;;;;;;;;;;;;;;3.39;68.91;100105.81;5012171;28;1441;-57
2022/01/15 05:49:43;;;;;;;;;;;;;;;3.39;68.83;100114.81;5012354;28;853;-57
2022/01/15 05:52:10;;;;;;;;;;;;;;;3.36;68.76;100114.72;4994418;28;1197;-57
2022/01/15 05:54:39;;;;;;;;;;;;;;;3.32;69.39;100108.34;5012170;28;887;-57
2022/01/15 05:57:04;;;;;;;;;;;;;;;3.30;69.51;100114.16;5012085;28;853;-57
2022/01/15 05:59:31;;;;;;;;;;;;;;;3.31;69.00;100109.47;5012009;28;1115;-57
2022/01/15 06:01:57;;;;;;;;;;;;;;;3.32;69.12;100113.81;5011694;28;1902;-58
2022/01/15 06:04:23;;;;;;;;;;;;;;;3.37;68.56;100116.28;5011849;28;1178;-57
2022/01/15 06:06:50;;;;;;;;;;;;;;;3.37;68.34;100129.94;5012268;28;892;-57
2022/01/15 06:09:17;;;;;;;;;;;;;;;3.42;67.53;100127.00;5011909;28;840;-57
2022/01/15 06:11:44;;;;;;;;;;;;;;;3.52;66.40;100140.19;5011812;28;821;-57
2022/01/15 06:14:11;;;;;;;;;;;;;;;3.67;65.09;100150.38;5011805;28;918;-57
2022/01/15 06:16:37;;;;;;;;;;;;;;;3.74;64.40;100152.50;5012058;28;832;-57
2022/01/15 06:19:04;;;;;;;;;;;;;;;3.76;64.57;100152.97;5011745;28;880;-57
2022/01/15 06:21:30;;;;;;;;;;;;;;;3.75;64.45;100150.56;5011616;28;1953;-57
2022/01/15 06:23:56;;;;;;;;;;;;;;;3.76;64.55;100144.75;4994205;28;911;-57
2022/01/15 06:26:23;;;;;;;;;;;;;;;3.79;63.92;100152.25;5011862;28;825;-57
2022/01/15 06:28:49;;;;;;;;;;;;;;;3.80;63.81;100155.81;5011635;28;1006;-57
2022/01/15 06:31:16;;;;;;;;;;;;;;;3.79;63.94;100162.41;5011901;28;923;-58
2022/01/15 06:33:42;;;;;;;;;;;;;;;3.80;64.00;100155.81;5011436;28;1152;-57
2022/01/15 06:36:08;;;;;;;;;;;;;;;3.81;64.26;100162.84;4994167;28;1067;-57
2022/01/15 06:38:34;;;;;;;;;;;;;;;3.80;63.46;100167.53;5011770;28;824;-57
2022/01/15 06:41:01;;;;;;;;;;;;;;;3.81;64.06;100171.84;5011773;28;808;-57
2022/01/15 06:43:27;;;;;;;;;;;;;;;3.80;63.65;100173.00;5012019;28;1894;-57
2022/01/15 06:45:54;;;;;;;;;;;;;;;3.84;63.55;100176.63;5012008;28;1282;-58
2022/01/15 06:48:21;;;;;;;;;;;;;;;3.88;63.65;100179.44;5013145;28;785;-58
2022/01/15 06:50:47;;;;;;;;;;;;;;;3.89;63.48;100184.56;5016137;28;765;-58
2022/01/15 06:53:14;;;;;;;;;;;;;;;3.93;62.96;100187.41;5015562;28;853;-57
2022/01/15 06:55:43;;;;;;;;;;;;;;;3.98;62.78;100183.63;5015446;28;896;-57
2022/01/15 06:58:09;;;;;;;;;;;;;;;4.05;62.43;100181.91;5015810;28;895;-58
2022/01/15 07:00:35;;;;;;;;;;;;;;;4.09;62.80;100188.25;4998266;28;823;-57
2022/01/15 07:03:02;;;;;;;;;;;;;;;4.15;63.18;100190.72;4997507;28;1974;-57
2022/01/15 07:05:29;;;;;;;;;;;;;;;4.22;63.14;100199.13;5015175;28;902;-57
2022/01/15 07:07:56;;;;;;;;;;;;;;;4.28;63.58;100189.53;5015346;28;828;-57
2022/01/15 07:10:22;;;;;;;;;;;;;;;4.39;64.12;100203.50;5015139;28;1071;-57
2022/01/15 07:12:48;;;;;;;;;;;;;;;4.47;64.54;100197.06;5015042;28;935;-57
2022/01/15 07:15:15;;;;;;;;;;;;;;;4.59;66.19;100201.69;4997544;28;900;-57
2022/01/15 07:17:45;;;;;;;;;;;;;;;4.70;67.13;100205.47;5014960;28;935;-58
2022/01/15 07:20:12;;;;;;;;;;;;;;;4.78;67.76;100218.19;5015166;28;1252;-57
2022/01/15 07:22:39;;;;;;;;;;;;;;;4.80;68.17;100215.09;5015178;28;1941;-57
2022/01/15 07:25:06;;;;;;;;;;;;;;;4.69;67.97;100218.38;5015193;28;825;-57
2022/01/15 07:27:33;;;;;;;;;;;;;;;4.64;68.96;100215.09;5014823;28;832;-57
2022/01/15 07:30:01;;;;;;;;;;;;;;;4.71;69.63;100226.22;5015397;28;845;-57
2022/01/15 07:32:27;;;;;;;;;;;;;;;4.75;70.05;100232.59;5014854;28;892;-57
2022/01/15 07:34:54;;;;;;;;;;;;;;;4.83;70.51;100225.34;5015167;28;880;-57
2022/01/15 07:37:21;;;;;;;;;;;;;;;5.00;70.09;100225.00;4997508;28;892;-57
2022/01/15 07:39:47;;;;;;;;;;;;;;;5.11;69.16;100233.47;5015220;28;757;-57
2022/01/15 07:42:14;;;;;;;;;;;;;;;5.21;68.51;100234.88;5014519;28;1890;-57
2022/01/15 07:44:41;;;;;;;;;;;;;;;5.28;68.49;100232.31;5014414;28;944;-57
2022/01/15 07:47:08;;;;;;;;;;;;;;;5.37;67.54;100232.91;5014382;28;1270;-57
2022/01/15 07:49:35;;;;;;;;;;;;;;;5.40;66.78;100234.94;5014398;28;951;-57
2022/01/15 07:52:01;;;;;;;;;;;;;;;5.43;66.08;100236.16;5014412;28;869;-57
2022/01/15 07:54:28;;;;;;;;;;;;;;;5.49;64.99;100241.00;5014272;28;883;-58
2022/01/15 07:56:55;;;;;;;;;;;;;;;5.46;64.14;100232.69;5014294;28;840;-57
2022/01/15 07:59:22;;;;;;;;;;;;;;;5.40;63.58;100237.69;5013605;28;953;-57
2022/01/15 08:01:48;;;;;;;;;;;;;;;5.42;64.44;100234.56;5013320;28;1976;-57
2022/01/15 08:04:14;;;;;;;;;;;;;;;5.65;65.16;100234.69;5014146;28;821;-57
2022/01/15 08:06:41;;;;;;;;;;;;;;;5.77;64.24;100248.28;5014107;28;820;-57
2022/01/15 08:09:08;;;;;;;;;;;;;;;5.57;64.85;100254.88;5013974;28;887;-57
2022/01/15 08:11:35;;;;;;;;;;;;;;;5.35;65.85;100256.34;5013990;28;869;-57
2022/01/15 08:14:01;;;;;;;;;;;;;;;5.25;67.67;100254.94;5013952;28;848;-57
2022/01/15 08:16:27;;;;;;;;;;;;;;;5.71;69.04;100252.47;5013914;28;821;-57
2022/01/15 08:18:54;;;;;;;;;;;;;;;6.49;65.83;100245.06;5013794;28;959;-57
2022/01/15 08:21:21;;;;;;;;;;;;;;;6.99;63.96;100245.13;5013658;28;1894;-57
2022/01/15 08:23:48;;;;;;;;;;;;;;;7.34;64.01;100244.13;5013820;28;841;-57
2022/01/15 08:26:14;;;;;;;;;;;;;;;7.52;66.25;100236.13;5013638;28;909;-57
2022/01/15 08:28:41;;;;;;;;;;;;;;;7.77;62.69;100233.72;5013566;28;848;-57
2022/01/15 08:31:07;;;;;;;;;;;;;;;7.94;61.78;100227.66;5013459;28;935;-57
2022/01/15 08:33:34;;;;;;;;;;;;;;;7.86;58.32;100236.19;5013612;28;883;-57
2022/01/15 08:36:01;;;;;;;;;;;;;;;7.71;57.99;100237.97;5013952;28;1021;-57
2022/01/15 08:38:27;;;;;;;;;;;;;;;7.81;56.28;100234.56;5013492;28;860;-57
2022/01/15 08:40:54;;;;;;;;;;;;;;;7.72;54.12;100225.78;5013441;28;883;-57
2022/01/15 08:43:19;;;;;;;;;;;;;;;7.52;52.36;100234.16;5013587;28;1890;-57
2022/01/15 08:45:47;;;;;;;;;;;;;;;7.52;54.35;100233.38;5013384;28;832;-57
2022/01/15 08:48:19;;;;;;;;;;;;;;;7.56;54.77;100239.72;5013284;28;828;-58
2022/01/15 08:51:01;;;;;;;;;;;;;;;7.69;53.89;100226.53;5013199;28;982;-57
2022/01/15 08:53:27;;;;;;;;;;;;;;;7.61;52.84;100244.13;5013400;28;820;-57
2022/01/15 08:55:54;;;;;;;;;;;;;;;7.59;54.74;100241.72;4995979;28;856;-57
2022/01/15 08:58:21;;;;;;;;;;;;;;;7.68;53.49;100241.44;5013201;28;825;-57
2022/01/15 09:00:49;;;;;;;;;;;;;;;7.79;52.67;100236.91;5013003;28;911;-57
2022/01/15 09:03:15;;;;;;;;;;;;;;;7.74;48.32;100234.47;5013012;28;2012;-58
2022/01/15 09:05:42;;;;;;;;;;;;;;;7.65;49.10;100237.50;5013150;28;1086;-58
2022/01/15 09:08:09;;;;;;;;;;;;;;;7.60;51.73;100237.81;5012997;28;844;-57
2022/01/15 09:10:41;;;;;;;;;;;;;;;7.75;47.16;100227.81;5012796;28;859;-58
2022/01/15 09:13:09;;;;;;;;;;;;;;;7.57;45.25;100235.81;4995182;28;1327;-58
2022/01/15 09:15:36;;;;;;;;;;;;;;;7.64;46.54;100226.84;5012764;28;852;-58
2022/01/15 09:18:03;;;;;;;;;;;;;;;7.64;45.31;100244.19;4995196;28;1306;-58
2022/01/15 09:20:30;;;;;;;;;;;;;;;7.26;45.21;100236.94;4995171;28;907;-58
2022/01/15 09:22:57;;;;;;;;;;;;;;;6.79;46.23;100236.16;5012806;28;1894;-58
2022/01/15 09:25:27;;;;;;;;;;;;;;;6.66;47.71;100237.50;5012515;28;845;-58
2022/01/15 09:30:39;;;;;;;;;;;;;;;6.50;48.09;100234.84;5012447;28;623;-58
2022/01/15 09:33:06;;;;;;;;;;;;;;;6.50;51.90;100254.88;5012474;28;887;-58
2022/01/15 09:35:34;;;;;;;;;;;;;;;6.56;48.54;100244.38;5012535;28;1187;-58
2022/01/15 09:38:00;;;;;;;;;;;;;;;6.65;48.38;100235.91;5012475;28;868;-58
2022/01/15 09:40:27;;;;;;;;;;;;;;;6.45;48.30;100241.44;5012398;28;891;-58
2022/01/15 09:42:55;;;;;;;;;;;;;;;6.25;49.06;100234.38;4994618;28;1955;-58
2022/01/15 09:45:23;;;;;;;;;;;;;;;6.06;48.58;100237.91;5012294;28;900;-58
2022/01/15 09:47:55;;;;;;;;;;;;;;;6.03;49.50;100230.41;5012113;28;1433;-58
2022/01/15 09:50:23;;;;;;;;;;;;;;;6.24;49.27;100239.06;5012984;28;770;-58
2022/01/15 09:52:50;;;;;;;;;;;;;;;6.25;50.41;100232.44;5012319;28;817;-58
2022/01/15 09:55:17;;;;;;;;;;;;;;;6.53;50.26;100229.44;5012164;28;1074;-58
2022/01/15 09:57:43;;;;;;;;;;;;;;;7.05;49.99;100224.41;5012346;28;809;-58
2022/01/15 10:00:14;;;;;;;;;;;;;;;7.46;46.20;100224.66;5012291;28;829;-58
2022/01/15 10:02:41;;;;;;;;;;;;;;;7.64;43.63;100218.59;5011860;28;1973;-58
2022/01/15 10:05:08;;;;;;;;;;;;;;;7.62;43.58;100215.44;5011981;28;867;-58
2022/01/15 10:07:53;;;;;;;;;;;;;;;7.63;41.72;100206.81;5012012;28;887;-58
2022/01/15 10:10:20;;;;;;;;;;;;;;;7.46;43.03;100212.84;5012040;28;812;-58
2022/01/15 10:12:47;;;;;;;;;;;;;;;7.52;44.01;100214.13;4994292;28;1375;-58
2022/01/15 10:15:15;;;;;;;;;;;;;;;7.46;43.75;100205.41;5011821;28;960;-58
2022/01/15 10:17:43;;;;;;;;;;;;;;;7.60;43.88;100196.56;5011930;28;832;-58
2022/01/15 10:20:11;;;;;;;;;;;;;;;7.45;43.98;100206.56;5011749;28;888;-58
2022/01/15 10:22:41;;;;;;;;;;;;;;;7.51;44.29;100202.34;5011217;28;1890;-58
2022/01/15 10:25:14;;;;;;;;;;;;;;;7.65;43.92;100195.44;5011714;28;828;-58
2022/01/15 10:27:42;;;;;;;;;;;;;;;7.82;42.94;100207.84;5011565;28;1144;-58
2022/01/15 10:30:18;;;;;;;;;;;;;;;7.96;43.67;100199.78;5011612;28;992;-58
2022/01/15 10:32:56;;;;;;;;;;;;;;;8.01;42.41;100201.41;5011675;28;871;-58
2022/01/15 10:35:24;;;;;;;;;;;;;;;7.83;43.33;100206.66;5011920;28;1192;-58
2022/01/15 10:37:49;;;;;;;;;;;;;;;7.85;43.63;100205.16;5011654;28;828;-58
2022/01/15 10:40:22;;;;;;;;;;;;;;;7.98;43.65;100195.47;5011505;28;891;-58
2022/01/15 10:42:57;;;;;;;;;;;;;;;7.77;44.80;100187.75;4993905;28;2560;-58
2022/01/15 10:45:26;;;;;;;;;;;;;;;7.84;44.81;100189.78;5011496;28;844;-59
2022/01/15 10:47:55;;;;;;;;;;;;;;;7.87;45.27;100178.03;5011213;28;1274;-58
2022/01/15 10:50:23;;;;;;;;;;;;;;;8.07;44.18;100180.63;4993845;28;1299;-59
2022/01/15 10:52:51;;;;;;;;;;;;;;;7.96;44.22;100175.78;4993918;28;1252;-58
2022/01/15 10:55:19;;;;;;;;;;;;;;;7.90;45.12;100180.03;5011426;28;903;-59
2022/01/15 10:57:48;;;;;;;;;;;;;;;7.90;44.79;100184.75;4993801;28;1296;-58
2022/01/15 11:00:16;;;;;;;;;;;;;;;7.88;46.28;100189.84;4993628;28;1470;-58
2022/01/15 11:02:49;;;;;;;;;;;;;;;7.91;44.64;100180.81;5011321;28;1910;-58
2022/01/15 11:05:27;;;;;;;;;;;;;;;7.91;44.89;100156.84;4993977;28;1197;-58
2022/01/15 11:08:03;;;;;;;;;;;;;;;7.96;45.57;100175.78;5011347;28;868;-58
2022/01/15 11:10:37;;;;;;;;;;;;;;;8.03;43.96;100183.31;5011643;28;833;-58
2022/01/15 11:13:07;;;;;;;;;;;;;;;8.21;45.47;100180.75;5011191;28;837;-58
2022/01/15 11:15:34;;;;;;;;;;;;;;;8.43;44.21;100167.22;4993610;28;1324;-58
2022/01/15 11:18:02;;;;;;;;;;;;;;;8.43;44.65;100164.47;4993607;28;1197;-58
2022/01/15 11:20:31;;;;;;;;;;;;;;;8.25;43.14;100165.06;4993588;28;1276;-58
2022/01/15 11:23:00;;;;;;;;;;;;;;;8.38;44.53;100168.34;5011173;28;1890;-58
2022/01/15 11:25:28;;;;;;;;;;;;;;;8.55;43.44;100155.94;5011193;28;953;-58
2022/01/15 11:27:56;;;;;;;;;;;;;;;8.58;40.03;100171.72;5011027;28;1019;-58
2022/01/15 11:30:23;;;;;;;;;;;;;;;8.38;39.24;100180.19;5010804;28;911;-58
2022/01/15 11:32:50;;;;;;;;;;;;;;;8.28;40.06;100156.06;5011185;28;844;-58
2022/01/15 11:35:16;;;;;;;;;;;;;;;8.04;40.15;100159.34;4995782;28;1391;-58
2022/01/15 11:37:52;;;;;;;;;;;;;;;8.05;40.81;100158.97;5014655;28;867;-58
2022/01/15 11:40:37;;;;;;;;;;;;;;;8.28;41.05;100153.31;5014722;28;1319;-58
2022/01/15 11:43:21;;;;;;;;;;;;;;;8.59;40.98;100157.56;5014992;28;1937;-58
2022/01/15 11:45:48;;;;;;;;;;;;;;;8.70;41.19;100165.13;5014244;28;1292;-58
2022/01/15 11:48:27;;;;;;;;;;;;;;;8.24;42.50;100163.50;4996810;28;1232;-58
2022/01/15 11:51:11;;;;;;;;;;;;;;;8.03;42.61;100158.56;5014347;28;876;-58
2022/01/15 11:53:48;;;;;;;;;;;;;;;7.54;43.80;100152.06;4996718;28;1230;-58
2022/01/15 11:56:18;;;;;;;;;;;;;;;7.25;42.49;100148.13;5014363;28;867;-58
2022/01/15 11:58:45;;;;;;;;;;;;;;;7.03;43.14;100147.03;4996433;28;1204;-58
2022/01/15 12:01:30;;;;;;;;;;;;;;;7.31;43.07;100148.63;5014164;28;876;-58
2022/01/15 12:04:15;;;;;;;;;;;;;;;7.44;44.24;100144.47;5014166;28;937;-58
2022/01/15 12:07:00;;;;;;;;;;;;;;;8.05;43.26;100152.69;5014168;28;859;-58
2022/01/15 12:09:46;;;;;;;;;;;;;;;7.91;42.71;100136.78;5014017;28;892;-58
2022/01/15 12:12:41;;;;;;;;;;;;;;;8.38;42.88;100129.78;5014027;28;809;-58
2022/01/15 12:15:16;;;;;;;;;;;;;;;8.96;42.30;100133.81;5013749;28;1587;-58
2022/01/15 12:17:48;;;;;;;;;;;;;;;9.31;42.18;100144.28;5014204;28;923;-59
2022/01/15 12:20:18;;;;;;;;;;;;;;;9.11;41.50;100126.44;4996163;28;1440;-58
2022/01/15 12:22:46;;;;;;;;;;;;;;;9.16;42.02;100129.63;4996078;28;1890;-59
2022/01/15 12:25:30;;;;;;;;;;;;;;;8.88;42.74;100134.97;4996064;28;1490;-58
2022/01/15 12:27:58;;;;;;;;;;;;;;;8.70;42.98;100149.38;4995946;28;1634;-58
2022/01/15 12:30:27;;;;;;;;;;;;;;;8.74;44.13;100139.16;5013703;28;1055;-59
2022/01/15 12:32:54;;;;;;;;;;;;;;;8.73;44.40;100140.34;4995851;28;1429;-59
2022/01/15 12:35:23;;;;;;;;;;;;;;;8.92;44.69;100141.28;5014028;28;916;-59
2022/01/15 12:37:53;;;;;;;;;;;;;;;8.98;43.65;100150.75;5013505;28;873;-59
2022/01/15 12:40:22;;;;;;;;;;;;;;;8.90;43.39;100146.41;5013549;28;824;-58
2022/01/15 12:43:00;;;;;;;;;;;;;;;8.97;43.05;100135.41;4995487;28;2028;-57
2022/01/15 12:45:27;;;;;;;;;;;;;;;8.81;43.96;100145.91;4995430;28;1331;-59
2022/01/15 12:47:55;;;;;;;;;;;;;;;8.76;43.72;100138.78;5012692;28;1464;-59
2022/01/15 12:50:21;;;;;;;;;;;;;;;8.23;44.58;100139.88;5013208;28;928;-58
2022/01/15 12:52:59;;;;;;;;;;;;;;;8.04;45.61;100137.31;5013258;28;900;-58
2022/01/15 12:55:30;;;;;;;;;;;;;;;7.65;46.25;100146.69;5013173;28;832;-58
2022/01/15 12:57:57;;;;;;;;;;;;;;;7.79;46.70;100146.09;4995640;28;1622;-59
2022/01/15 13:00:26;;;;;;;;;;;;;;;7.86;46.30;100143.41;5013608;28;801;-58
2022/01/15 13:02:57;;;;;;;;;;;;;;;8.00;45.70;100137.28;5013131;28;1982;-58
2022/01/15 13:05:29;;;;;;;;;;;;;;;7.66;47.12;100134.53;4979262;28;1316;-59
2022/01/15 13:08:00;;;;;;;;;;;;;;;7.34;47.23;100134.91;4995290;28;826;-58
2022/01/15 13:11:19;;;;;;;;;;;;;;;7.07;47.74;100136.91;5012910;28;844;-58
2022/01/15 13:13:32;;;;;;;;;;;;;;;7.01;48.01;100127.38;5009317;28;1493;-58
2022/01/15 13:16:07;;;;;;;;;;;;;;;7.44;47.66;100133.47;4995149;28;1190;-58
2022/01/15 13:18:38;;;;;;;;;;;;;;;7.54;46.78;100121.03;5012714;28;907;-59
2022/01/15 13:21:06;;;;;;;;;;;;;;;7.89;46.98;100139.91;4995298;28;1461;-58
2022/01/15 13:23:53;;;;;;;;;;;;;;;8.51;46.18;100136.66;5012858;28;1894;-58
2022/01/15 13:26:21;;;;;;;;;;;;;;;8.86;44.85;100134.56;4995154;28;1287;-59
2022/01/15 13:28:49;;;;;;;;;;;;;;;8.81;44.33;100132.91;5012535;28;958;-58
2022/01/15 13:31:15;;;;;;;;;;;;;;;8.51;45.99;100138.59;5012604;28;908;-58
2022/01/15 13:33:44;;;;;;;;;;;;;;;8.72;45.45;100130.50;5012516;28;912;-59
2022/01/15 13:36:13;;;;;;;;;;;;;;;8.50;45.12;100128.75;5012858;28;1063;-59
2022/01/15 13:38:40;;;;;;;;;;;;;;;8.52;45.88;100138.22;5012485;28;840;-58
2022/01/15 13:41:15;;;;;;;;;;;;;;;8.79;45.87;100138.84;5012288;28;953;-58
2022/01/15 13:43:43;;;;;;;;;;;;;;;8.84;44.55;100134.16;4994543;28;1886;-58
2022/01/15 13:46:17;;;;;;;;;;;;;;;8.46;45.69;100131.47;4994346;28;1312;-58
2022/01/15 13:48:52;;;;;;;;;;;;;;;8.43;44.96;100129.47;5012452;28;845;-58
2022/01/15 13:54:09;;;;;;;;;;;;;;;8.20;45.21;100131.59;5012476;28;667;-58
2022/01/15 13:56:36;;;;;;;;;;;;;;;8.14;45.65;100131.13;5012000;28;924;-58
2022/01/15 13:59:04;;;;;;;;;;;;;;;8.28;45.90;100135.97;5011260;28;900;-58